sensor_id;sensor_type;location;lat;lon;timestamp;P1;durP1;ratioP1;P2;durP2;ratioP2
17228;SDS011;8731;50.364;8.958;2023-09-12T00:01:46;10.13;;;5.50;;
17228;SDS011;8731;50.364;8.958;2023-09-12T00:06:10;12.47;;;5.80;;
17228;SDS011;8731;50.364;8.958;2023-09-12T00:10:33;11.17;;;5.60;;
17228;SDS011;8731;50.364;8.958;2023-09-12T00:14:57;9.73;;;5.50;;
17228;SDS011;8731;50.364;8.958;2023-09-12T00:19:20;8.97;;;5.67;;
17228;SDS011;8731;50.364;8.958;2023-09-12T00:23:44;9.30;;;5.63;;
17228;SDS011;8731;50.364;8.958;2023-09-12T00:28:11;8.13;;;5.70;;
17228;SDS011;8731;50.364;8.958;2023-09-12T00:32:34;11.43;;;5.30;;
17228;SDS011;8731;50.364;8.958;2023-09-12T00:37:02;11.57;;;5.93;;
17228;SDS011;8731;50.364;8.958;2023-09-12T00:41:28;13.40;;;6.47;;
17228;SDS011;8731;50.364;8.958;2023-09-12T00:46:18;14.43;;;6.23;;
17228;SDS011;8731;50.364;8.958;2023-09-12T00:50:45;11.53;;;6.20;;
17228;SDS011;8731;50.364;8.958;2023-09-12T00:55:11;12.03;;;5.73;;
17228;SDS011;8731;50.364;8.958;2023-09-12T00:59:37;13.67;;;5.47;;
17228;SDS011;8731;50.364;8.958;2023-09-12T01:04:05;10.60;;;6.90;;
17228;SDS011;8731;50.364;8.958;2023-09-12T01:08:30;12.00;;;6.43;;
17228;SDS011;8731;50.364;8.958;2023-09-12T01:12:58;16.00;;;6.40;;
17228;SDS011;8731;50.364;8.958;2023-09-12T01:17:22;11.57;;;7.10;;
17228;SDS011;8731;50.364;8.958;2023-09-12T01:27:18;13.70;;;6.97;;
17228;SDS011;8731;50.364;8.958;2023-09-12T01:31:49;13.93;;;6.90;;
17228;SDS011;8731;50.364;8.958;2023-09-12T01:36:17;13.47;;;6.03;;
17228;SDS011;8731;50.364;8.958;2023-09-12T01:40:42;16.10;;;6.23;;
17228;SDS011;8731;50.364;8.958;2023-09-12T01:45:15;12.40;;;6.57;;
17228;SDS011;8731;50.364;8.958;2023-09-12T01:49:44;15.17;;;6.50;;
17228;SDS011;8731;50.364;8.958;2023-09-12T01:54:11;16.17;;;6.70;;
17228;SDS011;8731;50.364;8.958;2023-09-12T01:58:42;12.30;;;6.17;;
17228;SDS011;8731;50.364;8.958;2023-09-12T02:03:09;9.40;;;6.60;;
17228;SDS011;8731;50.364;8.958;2023-09-12T02:07:41;10.53;;;6.67;;
17228;SDS011;8731;50.364;8.958;2023-09-12T02:12:04;11.87;;;6.70;;
17228;SDS011;8731;50.364;8.958;2023-09-12T02:16:31;11.07;;;5.83;;
17228;SDS011;8731;50.364;8.958;2023-09-12T02:20:59;10.87;;;6.70;;
17228;SDS011;8731;50.364;8.958;2023-09-12T02:25:22;13.23;;;6.67;;
17228;SDS011;8731;50.364;8.958;2023-09-12T02:29:46;11.30;;;6.30;;
17228;SDS011;8731;50.364;8.958;2023-09-12T02:34:17;13.43;;;7.23;;
17228;SDS011;8731;50.364;8.958;2023-09-12T02:38:48;11.57;;;6.17;;
17228;SDS011;8731;50.364;8.958;2023-09-12T02:43:15;14.93;;;7.17;;
17228;SDS011;8731;50.364;8.958;2023-09-12T02:47:46;12.83;;;6.70;;
17228;SDS011;8731;50.364;8.958;2023-09-12T02:52:10;11.53;;;6.00;;
17228;SDS011;8731;50.364;8.958;2023-09-12T02:56:34;13.53;;;6.83;;
17228;SDS011;8731;50.364;8.958;2023-09-12T03:00:58;9.13;;;6.90;;
17228;SDS011;8731;50.364;8.958;2023-09-12T03:05:26;13.93;;;7.20;;
17228;SDS011;8731;50.364;8.958;2023-09-12T03:09:50;13.97;;;6.53;;
17228;SDS011;8731;50.364;8.958;2023-09-12T03:14:18;11.43;;;6.50;;
17228;SDS011;8731;50.364;8.958;2023-09-12T03:18:42;14.40;;;7.03;;
17228;SDS011;8731;50.364;8.958;2023-09-12T03:23:06;10.07;;;6.70;;
17228;SDS011;8731;50.364;8.958;2023-09-12T03:27:30;17.00;;;8.00;;
17228;SDS011;8731;50.364;8.958;2023-09-12T03:31:57;13.83;;;6.77;;
17228;SDS011;8731;50.364;8.958;2023-09-12T03:36:20;12.93;;;6.80;;
17228;SDS011;8731;50.364;8.958;2023-09-12T03:40:49;12.93;;;7.20;;
17228;SDS011;8731;50.364;8.958;2023-09-12T03:45:13;12.43;;;6.70;;
17228;SDS011;8731;50.364;8.958;2023-09-12T03:49:43;13.23;;;7.50;;
17228;SDS011;8731;50.364;8.958;2023-09-12T03:54:05;14.70;;;7.57;;
17228;SDS011;8731;50.364;8.958;2023-09-12T03:58:30;9.97;;;6.67;;
17228;SDS011;8731;50.364;8.958;2023-09-12T04:02:54;15.37;;;8.23;;
17228;SDS011;8731;50.364;8.958;2023-09-12T04:07:21;12.13;;;7.30;;
17228;SDS011;8731;50.364;8.958;2023-09-12T04:11:45;9.43;;;6.57;;
17228;SDS011;8731;50.364;8.958;2023-09-12T04:16:09;13.20;;;8.03;;
17228;SDS011;8731;50.364;8.958;2023-09-12T04:20:36;11.07;;;6.53;;
17228;SDS011;8731;50.364;8.958;2023-09-12T04:25:10;14.37;;;6.53;;
17228;SDS011;8731;50.364;8.958;2023-09-12T04:29:41;12.50;;;7.77;;
17228;SDS011;8731;50.364;8.958;2023-09-12T04:34:05;14.47;;;7.33;;
17228;SDS011;8731;50.364;8.958;2023-09-12T04:38:29;11.97;;;7.50;;
17228;SDS011;8731;50.364;8.958;2023-09-12T04:43:02;12.10;;;7.80;;
17228;SDS011;8731;50.364;8.958;2023-09-12T04:47:27;7.53;;;6.50;;
17228;SDS011;8731;50.364;8.958;2023-09-12T04:51:53;15.17;;;7.70;;
17228;SDS011;8731;50.364;8.958;2023-09-12T04:56:19;12.90;;;7.70;;
17228;SDS011;8731;50.364;8.958;2023-09-12T05:00:46;14.00;;;7.27;;
17228;SDS011;8731;50.364;8.958;2023-09-12T05:05:14;11.33;;;7.10;;
17228;SDS011;8731;50.364;8.958;2023-09-12T05:09:45;16.00;;;8.07;;
17228;SDS011;8731;50.364;8.958;2023-09-12T05:14:11;13.43;;;7.57;;
17228;SDS011;8731;50.364;8.958;2023-09-12T05:18:39;15.83;;;7.27;;
17228;SDS011;8731;50.364;8.958;2023-09-12T05:23:09;13.63;;;6.63;;
17228;SDS011;8731;50.364;8.958;2023-09-12T05:27:34;13.73;;;7.40;;
17228;SDS011;8731;50.364;8.958;2023-09-12T05:32:03;10.60;;;7.20;;
17228;SDS011;8731;50.364;8.958;2023-09-12T05:36:30;14.07;;;7.60;;
17228;SDS011;8731;50.364;8.958;2023-09-12T05:40:52;10.57;;;7.10;;
17228;SDS011;8731;50.364;8.958;2023-09-12T05:45:15;10.70;;;7.03;;
17228;SDS011;8731;50.364;8.958;2023-09-12T05:49:38;13.93;;;7.13;;
17228;SDS011;8731;50.364;8.958;2023-09-12T05:54:02;11.77;;;7.63;;
17228;SDS011;8731;50.364;8.958;2023-09-12T05:58:24;11.53;;;8.60;;
17228;SDS011;8731;50.364;8.958;2023-09-12T06:02:47;14.90;;;7.63;;
17228;SDS011;8731;50.364;8.958;2023-09-12T06:07:10;13.93;;;7.20;;
17228;SDS011;8731;50.364;8.958;2023-09-12T06:11:34;15.03;;;7.67;;
17228;SDS011;8731;50.364;8.958;2023-09-12T06:15:59;11.47;;;7.53;;
17228;SDS011;8731;50.364;8.958;2023-09-12T06:20:22;11.77;;;7.27;;
17228;SDS011;8731;50.364;8.958;2023-09-12T06:24:45;27.23;;;9.13;;
17228;SDS011;8731;50.364;8.958;2023-09-12T06:29:08;16.93;;;8.53;;
17228;SDS011;8731;50.364;8.958;2023-09-12T06:33:31;11.77;;;6.77;;
17228;SDS011;8731;50.364;8.958;2023-09-12T06:37:54;13.57;;;7.30;;
17228;SDS011;8731;50.364;8.958;2023-09-12T06:42:17;11.13;;;7.07;;
17228;SDS011;8731;50.364;8.958;2023-09-12T06:46:41;11.03;;;7.90;;
17228;SDS011;8731;50.364;8.958;2023-09-12T06:51:04;14.83;;;7.00;;
17228;SDS011;8731;50.364;8.958;2023-09-12T06:55:29;12.07;;;7.40;;
17228;SDS011;8731;50.364;8.958;2023-09-12T06:59:52;11.40;;;6.90;;
17228;SDS011;8731;50.364;8.958;2023-09-12T07:04:17;19.70;;;8.27;;
17228;SDS011;8731;50.364;8.958;2023-09-12T07:08:39;14.23;;;6.70;;
17228;SDS011;8731;50.364;8.958;2023-09-12T07:13:02;16.03;;;7.83;;
17228;SDS011;8731;50.364;8.958;2023-09-12T07:17:24;17.07;;;7.27;;
17228;SDS011;8731;50.364;8.958;2023-09-12T07:21:50;13.40;;;7.13;;
17228;SDS011;8731;50.364;8.958;2023-09-12T07:26:13;13.17;;;7.50;;
17228;SDS011;8731;50.364;8.958;2023-09-12T07:30:36;13.60;;;7.27;;
17228;SDS011;8731;50.364;8.958;2023-09-12T07:34:58;16.70;;;7.17;;
17228;SDS011;8731;50.364;8.958;2023-09-12T07:39:22;11.83;;;7.07;;
17228;SDS011;8731;50.364;8.958;2023-09-12T07:43:45;16.53;;;7.63;;
17228;SDS011;8731;50.364;8.958;2023-09-12T07:48:08;14.90;;;7.10;;
17228;SDS011;8731;50.364;8.958;2023-09-12T07:52:32;14.33;;;6.07;;
17228;SDS011;8731;50.364;8.958;2023-09-12T07:56:56;10.23;;;6.30;;
17228;SDS011;8731;50.364;8.958;2023-09-12T08:01:18;13.50;;;6.70;;
17228;SDS011;8731;50.364;8.958;2023-09-12T08:05:41;13.30;;;5.73;;
17228;SDS011;8731;50.364;8.958;2023-09-12T08:10:03;12.37;;;6.33;;
17228;SDS011;8731;50.364;8.958;2023-09-12T08:14:28;14.03;;;6.00;;
17228;SDS011;8731;50.364;8.958;2023-09-12T08:18:50;9.67;;;5.70;;
17228;SDS011;8731;50.364;8.958;2023-09-12T08:23:14;14.27;;;5.73;;
17228;SDS011;8731;50.364;8.958;2023-09-12T08:27:36;13.47;;;5.87;;
17228;SDS011;8731;50.364;8.958;2023-09-12T08:32:00;10.10;;;5.00;;
17228;SDS011;8731;50.364;8.958;2023-09-12T08:36:25;15.17;;;5.73;;
17228;SDS011;8731;50.364;8.958;2023-09-12T08:40:47;10.70;;;5.20;;
17228;SDS011;8731;50.364;8.958;2023-09-12T08:45:12;14.82;;;5.25;;
17228;SDS011;8731;50.364;8.958;2023-09-12T08:49:38;11.57;;;5.03;;
17228;SDS011;8731;50.364;8.958;2023-09-12T08:54:02;14.38;;;5.20;;
17228;SDS011;8731;50.364;8.958;2023-09-12T08:58:25;14.80;;;5.78;;
17228;SDS011;8731;50.364;8.958;2023-09-12T09:02:48;9.80;;;5.05;;
17228;SDS011;8731;50.364;8.958;2023-09-12T09:07:14;13.25;;;5.45;;
17228;SDS011;8731;50.364;8.958;2023-09-12T09:11:37;9.57;;;4.82;;
17228;SDS011;8731;50.364;8.958;2023-09-12T09:16:09;16.75;;;5.80;;
17228;SDS011;8731;50.364;8.958;2023-09-12T09:20:33;15.63;;;5.57;;
17228;SDS011;8731;50.364;8.958;2023-09-12T09:25:10;11.82;;;5.03;;
17228;SDS011;8731;50.364;8.958;2023-09-12T09:29:45;13.73;;;5.30;;
17228;SDS011;8731;50.364;8.958;2023-09-12T09:34:12;10.07;;;5.10;;
17228;SDS011;8731;50.364;8.958;2023-09-12T09:38:36;10.20;;;5.15;;
17228;SDS011;8731;50.364;8.958;2023-09-12T09:43:00;13.98;;;5.13;;
17228;SDS011;8731;50.364;8.958;2023-09-12T09:47:24;12.02;;;5.45;;
17228;SDS011;8731;50.364;8.958;2023-09-12T09:51:46;12.50;;;5.03;;
17228;SDS011;8731;50.364;8.958;2023-09-12T09:56:10;9.90;;;4.82;;
17228;SDS011;8731;50.364;8.958;2023-09-12T10:00:36;9.77;;;4.53;;
17228;SDS011;8731;50.364;8.958;2023-09-12T10:04:59;9.52;;;4.70;;
17228;SDS011;8731;50.364;8.958;2023-09-12T10:09:26;8.60;;;4.28;;
17228;SDS011;8731;50.364;8.958;2023-09-12T10:13:51;9.00;;;4.07;;
17228;SDS011;8731;50.364;8.958;2023-09-12T10:18:18;8.52;;;4.20;;
17228;SDS011;8731;50.364;8.958;2023-09-12T10:22:50;9.65;;;4.30;;
17228;SDS011;8731;50.364;8.958;2023-09-12T10:27:23;9.18;;;4.45;;
17228;SDS011;8731;50.364;8.958;2023-09-12T10:31:46;12.13;;;4.68;;
17228;SDS011;8731;50.364;8.958;2023-09-12T10:36:11;9.18;;;4.45;;
17228;SDS011;8731;50.364;8.958;2023-09-12T10:40:35;11.02;;;4.40;;
17228;SDS011;8731;50.364;8.958;2023-09-12T10:45:01;11.85;;;4.65;;
17228;SDS011;8731;50.364;8.958;2023-09-12T10:49:29;9.18;;;4.30;;
17228;SDS011;8731;50.364;8.958;2023-09-12T10:53:54;12.30;;;4.75;;
17228;SDS011;8731;50.364;8.958;2023-09-12T10:58:17;8.15;;;4.22;;
17228;SDS011;8731;50.364;8.958;2023-09-12T11:02:40;10.20;;;4.47;;
17228;SDS011;8731;50.364;8.958;2023-09-12T11:12:06;11.75;;;4.25;;
17228;SDS011;8731;50.364;8.958;2023-09-12T11:17:20;12.02;;;4.68;;
17228;SDS011;8731;50.364;8.958;2023-09-12T11:21:44;9.82;;;4.28;;
17228;SDS011;8731;50.364;8.958;2023-09-12T11:26:11;9.60;;;4.65;;
17228;SDS011;8731;50.364;8.958;2023-09-12T11:30:35;11.50;;;5.30;;
17228;SDS011;8731;50.364;8.958;2023-09-12T11:34:58;6.50;;;4.38;;
17228;SDS011;8731;50.364;8.958;2023-09-12T11:39:28;14.85;;;5.03;;
17228;SDS011;8731;50.364;8.958;2023-09-12T11:43:52;6.43;;;3.90;;
17228;SDS011;8731;50.364;8.958;2023-09-12T11:48:17;8.90;;;4.63;;
17228;SDS011;8731;50.364;8.958;2023-09-12T11:52:40;10.20;;;4.10;;
17228;SDS011;8731;50.364;8.958;2023-09-12T11:57:02;8.45;;;4.10;;
17228;SDS011;8731;50.364;8.958;2023-09-12T12:01:26;13.95;;;4.68;;
17228;SDS011;8731;50.364;8.958;2023-09-12T12:05:52;11.70;;;4.97;;
17228;SDS011;8731;50.364;8.958;2023-09-12T12:10:15;8.38;;;5.03;;
17228;SDS011;8731;50.364;8.958;2023-09-12T12:14:38;9.15;;;5.10;;
17228;SDS011;8731;50.364;8.958;2023-09-12T12:19:01;7.57;;;5.05;;
17228;SDS011;8731;50.364;8.958;2023-09-12T12:23:25;14.15;;;5.15;;
17228;SDS011;8731;50.364;8.958;2023-09-12T12:27:47;10.70;;;5.70;;
17228;SDS011;8731;50.364;8.958;2023-09-12T12:32:10;10.00;;;5.35;;
17228;SDS011;8731;50.364;8.958;2023-09-12T12:36:40;10.20;;;5.32;;
17228;SDS011;8731;50.364;8.958;2023-09-12T12:41:05;11.13;;;5.82;;
17228;SDS011;8731;50.364;8.958;2023-09-12T12:45:28;12.77;;;5.50;;
17228;SDS011;8731;50.364;8.958;2023-09-12T12:49:50;14.32;;;5.10;;
17228;SDS011;8731;50.364;8.958;2023-09-12T12:54:13;9.25;;;4.80;;
17228;SDS011;8731;50.364;8.958;2023-09-12T12:58:38;9.30;;;5.55;;
17228;SDS011;8731;50.364;8.958;2023-09-12T13:03:06;10.02;;;5.50;;
17228;SDS011;8731;50.364;8.958;2023-09-12T13:07:28;16.02;;;13.73;;
17228;SDS011;8731;50.364;8.958;2023-09-12T13:11:50;24.65;;;15.30;;
17228;SDS011;8731;50.364;8.958;2023-09-12T13:16:14;18.23;;;15.95;;
17228;SDS011;8731;50.364;8.958;2023-09-12T13:20:38;16.15;;;10.05;;
17228;SDS011;8731;50.364;8.958;2023-09-12T13:25:00;13.07;;;9.05;;
17228;SDS011;8731;50.364;8.958;2023-09-12T13:29:22;17.88;;;9.88;;
17228;SDS011;8731;50.364;8.958;2023-09-12T13:33:46;13.77;;;10.93;;
17228;SDS011;8731;50.364;8.958;2023-09-12T13:38:09;12.25;;;9.90;;
17228;SDS011;8731;50.364;8.958;2023-09-12T13:42:31;11.15;;;5.57;;
17228;SDS011;8731;50.364;8.958;2023-09-12T13:46:54;10.15;;;5.63;;
17228;SDS011;8731;50.364;8.958;2023-09-12T13:51:18;10.00;;;8.82;;
17228;SDS011;8731;50.364;8.958;2023-09-12T13:55:41;13.65;;;8.45;;
17228;SDS011;8731;50.364;8.958;2023-09-12T14:00:03;16.05;;;7.07;;
17228;SDS011;8731;50.364;8.958;2023-09-12T14:04:29;12.50;;;8.02;;
17228;SDS011;8731;50.364;8.958;2023-09-12T14:08:53;9.27;;;7.32;;
17228;SDS011;8731;50.364;8.958;2023-09-12T14:13:15;11.68;;;6.15;;
17228;SDS011;8731;50.364;8.958;2023-09-12T14:17:38;11.80;;;6.50;;
17228;SDS011;8731;50.364;8.958;2023-09-12T14:22:00;8.73;;;6.35;;
17228;SDS011;8731;50.364;8.958;2023-09-12T14:26:25;10.18;;;7.15;;
17228;SDS011;8731;50.364;8.958;2023-09-12T14:30:47;15.00;;;5.90;;
17228;SDS011;8731;50.364;8.958;2023-09-12T14:35:10;12.40;;;6.13;;
17228;SDS011;8731;50.364;8.958;2023-09-12T14:39:32;15.48;;;5.70;;
17228;SDS011;8731;50.364;8.958;2023-09-12T14:43:56;12.38;;;6.13;;
17228;SDS011;8731;50.364;8.958;2023-09-12T14:48:19;9.65;;;6.50;;
17228;SDS011;8731;50.364;8.958;2023-09-12T14:52:42;8.77;;;6.03;;
17228;SDS011;8731;50.364;8.958;2023-09-12T14:57:04;8.25;;;6.40;;
17228;SDS011;8731;50.364;8.958;2023-09-12T15:01:28;11.93;;;6.47;;
17228;SDS011;8731;50.364;8.958;2023-09-12T15:05:50;8.73;;;6.27;;
17228;SDS011;8731;50.364;8.958;2023-09-12T15:10:14;11.53;;;6.23;;
17228;SDS011;8731;50.364;8.958;2023-09-12T15:14:38;13.20;;;6.03;;
17228;SDS011;8731;50.364;8.958;2023-09-12T15:19:02;12.90;;;5.80;;
17228;SDS011;8731;50.364;8.958;2023-09-12T15:23:25;11.07;;;5.90;;
17228;SDS011;8731;50.364;8.958;2023-09-12T15:27:48;6.77;;;5.70;;
17228;SDS011;8731;50.364;8.958;2023-09-12T15:32:11;11.27;;;6.23;;
17228;SDS011;8731;50.364;8.958;2023-09-12T15:36:39;9.43;;;6.03;;
17228;SDS011;8731;50.364;8.958;2023-09-12T15:41:05;11.00;;;6.87;;
17228;SDS011;8731;50.364;8.958;2023-09-12T15:45:30;11.80;;;6.40;;
17228;SDS011;8731;50.364;8.958;2023-09-12T15:49:52;11.73;;;6.40;;
17228;SDS011;8731;50.364;8.958;2023-09-12T15:54:16;14.43;;;6.07;;
17228;SDS011;8731;50.364;8.958;2023-09-12T15:58:39;14.20;;;8.47;;
17228;SDS011;8731;50.364;8.958;2023-09-12T16:03:02;9.07;;;8.17;;
17228;SDS011;8731;50.364;8.958;2023-09-12T16:07:25;9.50;;;7.83;;
17228;SDS011;8731;50.364;8.958;2023-09-12T16:11:49;9.60;;;7.47;;
17228;SDS011;8731;50.364;8.958;2023-09-12T16:16:11;13.33;;;7.03;;
17228;SDS011;8731;50.364;8.958;2023-09-12T16:20:35;11.03;;;7.33;;
17228;SDS011;8731;50.364;8.958;2023-09-12T16:24:57;11.37;;;7.17;;
17228;SDS011;8731;50.364;8.958;2023-09-12T16:29:22;11.77;;;8.27;;
17228;SDS011;8731;50.364;8.958;2023-09-12T16:33:44;8.10;;;7.10;;
17228;SDS011;8731;50.364;8.958;2023-09-12T16:38:07;9.70;;;7.17;;
17228;SDS011;8731;50.364;8.958;2023-09-12T16:42:29;19.20;;;15.40;;
17228;SDS011;8731;50.364;8.958;2023-09-12T16:46:54;13.73;;;9.67;;
17228;SDS011;8731;50.364;8.958;2023-09-12T16:51:17;9.73;;;7.57;;
17228;SDS011;8731;50.364;8.958;2023-09-12T16:55:39;9.60;;;6.03;;
17228;SDS011;8731;50.364;8.958;2023-09-12T17:00:03;14.27;;;6.40;;
17228;SDS011;8731;50.364;8.958;2023-09-12T17:04:29;51.53;;;9.77;;
17228;SDS011;8731;50.364;8.958;2023-09-12T17:08:51;10.00;;;6.30;;
17228;SDS011;8731;50.364;8.958;2023-09-12T17:13:14;12.60;;;6.47;;
17228;SDS011;8731;50.364;8.958;2023-09-12T17:17:38;12.53;;;6.37;;
17228;SDS011;8731;50.364;8.958;2023-09-12T17:22:02;11.67;;;6.50;;
17228;SDS011;8731;50.364;8.958;2023-09-12T17:26:25;14.47;;;7.10;;
17228;SDS011;8731;50.364;8.958;2023-09-12T17:30:48;11.57;;;6.87;;
17228;SDS011;8731;50.364;8.958;2023-09-12T17:35:11;11.57;;;6.50;;
17228;SDS011;8731;50.364;8.958;2023-09-12T17:39:35;15.73;;;6.30;;
17228;SDS011;8731;50.364;8.958;2023-09-12T17:43:59;10.53;;;5.83;;
17228;SDS011;8731;50.364;8.958;2023-09-12T17:48:23;8.13;;;5.90;;
17228;SDS011;8731;50.364;8.958;2023-09-12T17:52:46;9.83;;;6.57;;
17228;SDS011;8731;50.364;8.958;2023-09-12T17:57:10;12.83;;;6.53;;
17228;SDS011;8731;50.364;8.958;2023-09-12T18:01:32;9.27;;;6.53;;
17228;SDS011;8731;50.364;8.958;2023-09-12T18:05:56;15.93;;;6.50;;
17228;SDS011;8731;50.364;8.958;2023-09-12T18:10:19;8.33;;;6.57;;
17228;SDS011;8731;50.364;8.958;2023-09-12T18:14:47;10.37;;;6.27;;
17228;SDS011;8731;50.364;8.958;2023-09-12T18:19:13;9.73;;;6.63;;
17228;SDS011;8731;50.364;8.958;2023-09-12T18:23:35;9.03;;;7.03;;
17228;SDS011;8731;50.364;8.958;2023-09-12T18:27:59;14.00;;;6.70;;
17228;SDS011;8731;50.364;8.958;2023-09-12T18:32:23;10.23;;;6.57;;
17228;SDS011;8731;50.364;8.958;2023-09-12T18:36:46;12.57;;;6.53;;
17228;SDS011;8731;50.364;8.958;2023-09-12T18:41:08;14.50;;;6.77;;
17228;SDS011;8731;50.364;8.958;2023-09-12T18:45:31;11.93;;;7.40;;
17228;SDS011;8731;50.364;8.958;2023-09-12T18:49:55;11.60;;;7.13;;
17228;SDS011;8731;50.364;8.958;2023-09-12T18:54:18;15.77;;;7.57;;
17228;SDS011;8731;50.364;8.958;2023-09-12T18:58:41;28.90;;;18.20;;
17228;SDS011;8731;50.364;8.958;2023-09-12T19:03:03;14.77;;;8.00;;
17228;SDS011;8731;50.364;8.958;2023-09-12T19:07:28;13.37;;;8.20;;
17228;SDS011;8731;50.364;8.958;2023-09-12T19:11:50;15.23;;;8.57;;
17228;SDS011;8731;50.364;8.958;2023-09-12T19:16:15;15.67;;;8.73;;
17228;SDS011;8731;50.364;8.958;2023-09-12T19:20:38;14.47;;;9.03;;
17228;SDS011;8731;50.364;8.958;2023-09-12T19:25:03;12.90;;;8.37;;
17228;SDS011;8731;50.364;8.958;2023-09-12T19:29:28;13.00;;;9.03;;
17228;SDS011;8731;50.364;8.958;2023-09-12T19:33:51;11.53;;;8.10;;
17228;SDS011;8731;50.364;8.958;2023-09-12T19:38:14;13.43;;;9.10;;
17228;SDS011;8731;50.364;8.958;2023-09-12T19:42:38;12.97;;;8.37;;
17228;SDS011;8731;50.364;8.958;2023-09-12T19:47:00;16.83;;;8.93;;
17228;SDS011;8731;50.364;8.958;2023-09-12T19:51:23;15.07;;;8.60;;
17228;SDS011;8731;50.364;8.958;2023-09-12T19:55:49;13.27;;;9.07;;
17228;SDS011;8731;50.364;8.958;2023-09-12T20:00:14;12.67;;;8.63;;
17228;SDS011;8731;50.364;8.958;2023-09-12T20:04:37;15.13;;;8.70;;
17228;SDS011;8731;50.364;8.958;2023-09-12T20:09:00;14.90;;;5.17;;
17228;SDS011;8731;50.364;8.958;2023-09-12T20:13:25;13.20;;;7.10;;
17228;SDS011;8731;50.364;8.958;2023-09-12T20:17:51;9.20;;;6.80;;
17228;SDS011;8731;50.364;8.958;2023-09-12T20:22:26;11.60;;;6.70;;
17228;SDS011;8731;50.364;8.958;2023-09-12T20:26:48;10.60;;;6.90;;
17228;SDS011;8731;50.364;8.958;2023-09-12T20:31:11;16.13;;;7.60;;
17228;SDS011;8731;50.364;8.958;2023-09-12T20:35:35;10.43;;;8.17;;
17228;SDS011;8731;50.364;8.958;2023-09-12T20:39:57;11.87;;;6.93;;
17228;SDS011;8731;50.364;8.958;2023-09-12T20:44:20;10.87;;;5.90;;
17228;SDS011;8731;50.364;8.958;2023-09-12T20:48:43;6.10;;;4.97;;
17228;SDS011;8731;50.364;8.958;2023-09-12T20:53:07;8.80;;;4.67;;
17228;SDS011;8731;50.364;8.958;2023-09-12T20:57:35;5.50;;;4.23;;
17228;SDS011;8731;50.364;8.958;2023-09-12T21:01:57;9.00;;;4.03;;
17228;SDS011;8731;50.364;8.958;2023-09-12T21:06:19;7.80;;;3.43;;
17228;SDS011;8731;50.364;8.958;2023-09-12T21:10:44;4.17;;;3.27;;
17228;SDS011;8731;50.364;8.958;2023-09-12T21:15:07;7.03;;;3.53;;
17228;SDS011;8731;50.364;8.958;2023-09-12T21:19:31;4.80;;;3.70;;
17228;SDS011;8731;50.364;8.958;2023-09-12T21:23:53;5.40;;;3.20;;
17228;SDS011;8731;50.364;8.958;2023-09-12T21:28:18;5.83;;;3.53;;
17228;SDS011;8731;50.364;8.958;2023-09-12T21:32:41;4.40;;;3.10;;
17228;SDS011;8731;50.364;8.958;2023-09-12T21:37:03;4.93;;;3.33;;
17228;SDS011;8731;50.364;8.958;2023-09-12T21:41:25;6.17;;;3.67;;
17228;SDS011;8731;50.364;8.958;2023-09-12T21:45:49;5.43;;;3.63;;
17228;SDS011;8731;50.364;8.958;2023-09-12T21:50:12;5.33;;;3.50;;
17228;SDS011;8731;50.364;8.958;2023-09-12T21:54:34;4.97;;;3.50;;
17228;SDS011;8731;50.364;8.958;2023-09-12T21:58:58;6.37;;;4.07;;
17228;SDS011;8731;50.364;8.958;2023-09-12T22:03:21;4.07;;;3.67;;
17228;SDS011;8731;50.364;8.958;2023-09-12T22:07:44;7.00;;;4.03;;
17228;SDS011;8731;50.364;8.958;2023-09-12T22:12:07;6.70;;;3.73;;
17228;SDS011;8731;50.364;8.958;2023-09-12T22:16:32;5.30;;;3.50;;
17228;SDS011;8731;50.364;8.958;2023-09-12T22:20:55;8.73;;;3.80;;
17228;SDS011;8731;50.364;8.958;2023-09-12T22:25:18;4.37;;;3.97;;
17228;SDS011;8731;50.364;8.958;2023-09-12T22:29:40;4.43;;;3.20;;
17228;SDS011;8731;50.364;8.958;2023-09-12T22:34:03;7.47;;;4.20;;
17228;SDS011;8731;50.364;8.958;2023-09-12T22:38:26;5.40;;;3.70;;
17228;SDS011;8731;50.364;8.958;2023-09-12T22:42:49;5.50;;;3.90;;
17228;SDS011;8731;50.364;8.958;2023-09-12T22:47:13;5.90;;;3.30;;
17228;SDS011;8731;50.364;8.958;2023-09-12T22:51:35;4.83;;;3.73;;
17228;SDS011;8731;50.364;8.958;2023-09-12T22:55:59;6.23;;;4.40;;
17228;SDS011;8731;50.364;8.958;2023-09-12T23:00:23;6.47;;;4.20;;
17228;SDS011;8731;50.364;8.958;2023-09-12T23:04:46;6.20;;;4.23;;
17228;SDS011;8731;50.364;8.958;2023-09-12T23:09:09;5.47;;;4.23;;
17228;SDS011;8731;50.364;8.958;2023-09-12T23:13:33;4.90;;;4.20;;
17228;SDS011;8731;50.364;8.958;2023-09-12T23:17:55;5.90;;;4.07;;
17228;SDS011;8731;50.364;8.958;2023-09-12T23:22:18;5.50;;;3.90;;
17228;SDS011;8731;50.364;8.958;2023-09-12T23:26:40;5.97;;;4.00;;
17228;SDS011;8731;50.364;8.958;2023-09-12T23:31:04;7.13;;;3.43;;
17228;SDS011;8731;50.364;8.958;2023-09-12T23:35:27;5.47;;;3.67;;
17228;SDS011;8731;50.364;8.958;2023-09-12T23:39:49;5.50;;;4.33;;
17228;SDS011;8731;50.364;8.958;2023-09-12T23:44:12;4.93;;;4.07;;
17228;SDS011;8731;50.364;8.958;2023-09-12T23:48:36;6.13;;;4.47;;
17228;SDS011;8731;50.364;8.958;2023-09-12T23:52:58;4.70;;;3.80;;
17228;SDS011;8731;50.364;8.958;2023-09-12T23:57:20;6.83;;;3.97;;
